sensor_id;sensor_type;location;lat;lon;timestamp;P1;durP1;ratioP1;P2;durP2;ratioP2
74920;SDS011;63483;47.384;8.860;2023-06-04T00:00:50;9.13;;;5.93;;
74920;SDS011;63483;47.384;8.860;2023-06-04T00:03:16;6.80;;;5.27;;
74920;SDS011;63483;47.384;8.860;2023-06-04T00:05:41;8.77;;;5.23;;
74920;SDS011;63483;47.384;8.860;2023-06-04T00:08:07;7.72;;;5.53;;
74920;SDS011;63483;47.384;8.860;2023-06-04T00:10:32;9.07;;;5.17;;
74920;SDS011;63483;47.384;8.860;2023-06-04T00:12:58;8.68;;;4.75;;
74920;SDS011;63483;47.384;8.860;2023-06-04T00:15:24;6.13;;;4.53;;
74920;SDS011;63483;47.384;8.860;2023-06-04T00:17:49;7.10;;;4.53;;
74920;SDS011;63483;47.384;8.860;2023-06-04T00:20:15;8.17;;;5.07;;
74920;SDS011;63483;47.384;8.860;2023-06-04T00:22:40;7.10;;;5.13;;
74920;SDS011;63483;47.384;8.860;2023-06-04T00:25:07;6.30;;;4.97;;
74920;SDS011;63483;47.384;8.860;2023-06-04T00:27:33;7.30;;;4.78;;
74920;SDS011;63483;47.384;8.860;2023-06-04T00:29:59;7.40;;;5.53;;
74920;SDS011;63483;47.384;8.860;2023-06-04T00:32:24;6.83;;;5.10;;
74920;SDS011;63483;47.384;8.860;2023-06-04T00:34:50;6.97;;;4.83;;
74920;SDS011;63483;47.384;8.860;2023-06-04T00:37:21;7.97;;;5.05;;
74920;SDS011;63483;47.384;8.860;2023-06-04T00:39:47;8.13;;;5.68;;
74920;SDS011;63483;47.384;8.860;2023-06-04T00:42:12;9.43;;;5.40;;
74920;SDS011;63483;47.384;8.860;2023-06-04T00:44:38;6.97;;;4.77;;
74920;SDS011;63483;47.384;8.860;2023-06-04T00:47:09;6.70;;;4.72;;
74920;SDS011;63483;47.384;8.860;2023-06-04T00:49:36;7.93;;;5.20;;
74920;SDS011;63483;47.384;8.860;2023-06-04T00:52:02;9.32;;;5.07;;
74920;SDS011;63483;47.384;8.860;2023-06-04T00:54:27;8.23;;;4.90;;
74920;SDS011;63483;47.384;8.860;2023-06-04T00:56:53;6.47;;;5.03;;
74920;SDS011;63483;47.384;8.860;2023-06-04T00:59:19;7.60;;;5.33;;
74920;SDS011;63483;47.384;8.860;2023-06-04T01:01:49;8.40;;;5.32;;
74920;SDS011;63483;47.384;8.860;2023-06-04T01:04:21;8.17;;;5.27;;
74920;SDS011;63483;47.384;8.860;2023-06-04T01:06:52;7.93;;;4.93;;
74920;SDS011;63483;47.384;8.860;2023-06-04T01:09:21;7.80;;;5.13;;
74920;SDS011;63483;47.384;8.860;2023-06-04T01:11:47;8.68;;;5.15;;
74920;SDS011;63483;47.384;8.860;2023-06-04T01:14:12;6.93;;;4.67;;
74920;SDS011;63483;47.384;8.860;2023-06-04T01:16:48;7.87;;;5.53;;
74920;SDS011;63483;47.384;8.860;2023-06-04T01:22:11;6.85;;;4.82;;
74920;SDS011;63483;47.384;8.860;2023-06-04T01:24:48;8.25;;;5.15;;
74920;SDS011;63483;47.384;8.860;2023-06-04T01:27:20;8.53;;;5.37;;
74920;SDS011;63483;47.384;8.860;2023-06-04T01:29:46;6.78;;;5.13;;
74920;SDS011;63483;47.384;8.860;2023-06-04T01:32:14;7.93;;;5.47;;
74920;SDS011;63483;47.384;8.860;2023-06-04T01:34:44;7.53;;;4.93;;
74920;SDS011;63483;47.384;8.860;2023-06-04T01:37:10;6.33;;;5.03;;
74920;SDS011;63483;47.384;8.860;2023-06-04T01:39:36;8.55;;;6.07;;
74920;SDS011;63483;47.384;8.860;2023-06-04T01:42:02;6.43;;;4.80;;
74920;SDS011;63483;47.384;8.860;2023-06-04T01:44:27;8.33;;;5.10;;
74920;SDS011;63483;47.384;8.860;2023-06-04T01:46:53;8.23;;;5.47;;
74920;SDS011;63483;47.384;8.860;2023-06-04T01:49:18;9.10;;;5.00;;
74920;SDS011;63483;47.384;8.860;2023-06-04T01:51:43;7.00;;;5.23;;
74920;SDS011;63483;47.384;8.860;2023-06-04T01:54:09;6.57;;;5.40;;
74920;SDS011;63483;47.384;8.860;2023-06-04T01:56:34;8.55;;;5.35;;
74920;SDS011;63483;47.384;8.860;2023-06-04T01:58:59;8.27;;;5.50;;
74920;SDS011;63483;47.384;8.860;2023-06-04T02:01:26;7.15;;;4.85;;
74920;SDS011;63483;47.384;8.860;2023-06-04T02:03:51;6.80;;;5.10;;
74920;SDS011;63483;47.384;8.860;2023-06-04T02:06:17;7.35;;;5.00;;
74920;SDS011;63483;47.384;8.860;2023-06-04T02:08:43;6.87;;;5.67;;
74920;SDS011;63483;47.384;8.860;2023-06-04T02:11:08;7.63;;;5.00;;
74920;SDS011;63483;47.384;8.860;2023-06-04T02:13:34;11.20;;;5.95;;
74920;SDS011;63483;47.384;8.860;2023-06-04T02:16:00;9.93;;;5.90;;
74920;SDS011;63483;47.384;8.860;2023-06-04T02:18:25;8.53;;;5.80;;
74920;SDS011;63483;47.384;8.860;2023-06-04T02:20:51;8.15;;;5.43;;
74920;SDS011;63483;47.384;8.860;2023-06-04T02:23:17;6.40;;;5.27;;
74920;SDS011;63483;47.384;8.860;2023-06-04T02:25:44;9.95;;;5.57;;
74920;SDS011;63483;47.384;8.860;2023-06-04T02:28:10;7.10;;;4.95;;
74920;SDS011;63483;47.384;8.860;2023-06-04T02:30:35;7.40;;;5.20;;
74920;SDS011;63483;47.384;8.860;2023-06-04T02:33:01;8.43;;;5.20;;
74920;SDS011;63483;47.384;8.860;2023-06-04T02:35:27;7.17;;;5.57;;
74920;SDS011;63483;47.384;8.860;2023-06-04T02:37:53;7.82;;;5.38;;
74920;SDS011;63483;47.384;8.860;2023-06-04T02:40:19;7.90;;;5.40;;
74920;SDS011;63483;47.384;8.860;2023-06-04T02:42:45;8.85;;;5.80;;
74920;SDS011;63483;47.384;8.860;2023-06-04T02:45:10;9.40;;;5.93;;
74920;SDS011;63483;47.384;8.860;2023-06-04T02:47:36;9.18;;;5.68;;
74920;SDS011;63483;47.384;8.860;2023-06-04T02:50:02;8.15;;;5.13;;
74920;SDS011;63483;47.384;8.860;2023-06-04T02:52:28;7.33;;;5.57;;
74920;SDS011;63483;47.384;8.860;2023-06-04T02:54:55;8.27;;;5.68;;
74920;SDS011;63483;47.384;8.860;2023-06-04T02:57:21;9.70;;;5.18;;
74920;SDS011;63483;47.384;8.860;2023-06-04T02:59:46;8.53;;;5.87;;
74920;SDS011;63483;47.384;8.860;2023-06-04T03:02:11;7.30;;;5.10;;
74920;SDS011;63483;47.384;8.860;2023-06-04T03:04:37;8.48;;;5.07;;
74920;SDS011;63483;47.384;8.860;2023-06-04T03:07:03;8.57;;;5.73;;
74920;SDS011;63483;47.384;8.860;2023-06-04T03:09:32;8.32;;;6.15;;
74920;SDS011;63483;47.384;8.860;2023-06-04T03:12:01;9.98;;;5.72;;
74920;SDS011;63483;47.384;8.860;2023-06-04T03:14:27;6.93;;;5.47;;
74920;SDS011;63483;47.384;8.860;2023-06-04T03:17:00;11.48;;;4.93;;
74920;SDS011;63483;47.384;8.860;2023-06-04T03:19:32;8.00;;;5.30;;
74920;SDS011;63483;47.384;8.860;2023-06-04T03:21:59;7.22;;;5.32;;
74920;SDS011;63483;47.384;8.860;2023-06-04T03:24:25;6.93;;;5.43;;
74920;SDS011;63483;47.384;8.860;2023-06-04T03:26:51;7.77;;;5.77;;
74920;SDS011;63483;47.384;8.860;2023-06-04T03:29:16;6.97;;;5.17;;
74920;SDS011;63483;47.384;8.860;2023-06-04T03:31:43;10.17;;;5.20;;
74920;SDS011;63483;47.384;8.860;2023-06-04T03:34:10;7.97;;;5.20;;
74920;SDS011;63483;47.384;8.860;2023-06-04T03:36:35;7.97;;;5.20;;
74920;SDS011;63483;47.384;8.860;2023-06-04T03:39:02;7.22;;;5.28;;
74920;SDS011;63483;47.384;8.860;2023-06-04T03:41:29;8.68;;;5.68;;
74920;SDS011;63483;47.384;8.860;2023-06-04T03:43:55;7.50;;;5.37;;
74920;SDS011;63483;47.384;8.860;2023-06-04T03:46:20;9.20;;;5.00;;
74920;SDS011;63483;47.384;8.860;2023-06-04T03:48:45;8.07;;;5.00;;
74920;SDS011;63483;47.384;8.860;2023-06-04T03:51:11;7.67;;;5.20;;
74920;SDS011;63483;47.384;8.860;2023-06-04T03:53:37;7.40;;;5.30;;
74920;SDS011;63483;47.384;8.860;2023-06-04T03:56:02;8.27;;;4.90;;
74920;SDS011;63483;47.384;8.860;2023-06-04T03:58:27;7.17;;;4.70;;
74920;SDS011;63483;47.384;8.860;2023-06-04T04:00:53;7.77;;;5.00;;
74920;SDS011;63483;47.384;8.860;2023-06-04T04:03:19;9.07;;;5.10;;
74920;SDS011;63483;47.384;8.860;2023-06-04T04:05:45;7.80;;;5.23;;
74920;SDS011;63483;47.384;8.860;2023-06-04T04:08:10;9.53;;;6.07;;
74920;SDS011;63483;47.384;8.860;2023-06-04T04:10:35;7.70;;;5.30;;
74920;SDS011;63483;47.384;8.860;2023-06-04T04:13:01;7.53;;;5.50;;
74920;SDS011;63483;47.384;8.860;2023-06-04T04:15:26;7.67;;;5.27;;
74920;SDS011;63483;47.384;8.860;2023-06-04T04:17:52;8.63;;;5.40;;
74920;SDS011;63483;47.384;8.860;2023-06-04T04:20:17;8.33;;;5.83;;
74920;SDS011;63483;47.384;8.860;2023-06-04T04:22:43;9.23;;;5.68;;
74920;SDS011;63483;47.384;8.860;2023-06-04T04:25:09;6.83;;;5.23;;
74920;SDS011;63483;47.384;8.860;2023-06-04T04:27:34;8.43;;;5.53;;
74920;SDS011;63483;47.384;8.860;2023-06-04T04:30:04;7.82;;;5.10;;
74920;SDS011;63483;47.384;8.860;2023-06-04T04:32:30;9.15;;;5.93;;
74920;SDS011;63483;47.384;8.860;2023-06-04T04:34:56;6.22;;;4.78;;
74920;SDS011;63483;47.384;8.860;2023-06-04T04:37:22;7.03;;;5.30;;
74920;SDS011;63483;47.384;8.860;2023-06-04T04:39:47;10.37;;;5.83;;
74920;SDS011;63483;47.384;8.860;2023-06-04T04:42:16;8.85;;;5.65;;
74920;SDS011;63483;47.384;8.860;2023-06-04T04:44:42;6.83;;;4.67;;
74920;SDS011;63483;47.384;8.860;2023-06-04T04:47:12;6.68;;;4.90;;
74920;SDS011;63483;47.384;8.860;2023-06-04T04:49:38;7.55;;;5.13;;
74920;SDS011;63483;47.384;8.860;2023-06-04T04:52:03;7.30;;;5.27;;
74920;SDS011;63483;47.384;8.860;2023-06-04T04:54:28;6.70;;;5.70;;
74920;SDS011;63483;47.384;8.860;2023-06-04T04:56:54;8.00;;;5.70;;
74920;SDS011;63483;47.384;8.860;2023-06-04T04:59:19;6.95;;;4.95;;
74920;SDS011;63483;47.384;8.860;2023-06-04T05:01:44;7.93;;;5.23;;
74920;SDS011;63483;47.384;8.860;2023-06-04T05:04:10;8.43;;;6.23;;
74920;SDS011;63483;47.384;8.860;2023-06-04T05:06:36;7.07;;;5.40;;
74920;SDS011;63483;47.384;8.860;2023-06-04T05:09:02;7.75;;;5.65;;
74920;SDS011;63483;47.384;8.860;2023-06-04T05:11:28;8.40;;;5.40;;
74920;SDS011;63483;47.384;8.860;2023-06-04T05:13:54;12.18;;;5.70;;
74920;SDS011;63483;47.384;8.860;2023-06-04T05:16:20;6.80;;;5.50;;
74920;SDS011;63483;47.384;8.860;2023-06-04T05:18:47;9.40;;;5.90;;
74920;SDS011;63483;47.384;8.860;2023-06-04T05:21:16;6.40;;;5.22;;
74920;SDS011;63483;47.384;8.860;2023-06-04T05:23:42;7.47;;;5.60;;
74920;SDS011;63483;47.384;8.860;2023-06-04T05:26:07;8.48;;;5.50;;
74920;SDS011;63483;47.384;8.860;2023-06-04T05:28:32;7.37;;;5.63;;
74920;SDS011;63483;47.384;8.860;2023-06-04T05:30:58;7.83;;;5.93;;
74920;SDS011;63483;47.384;8.860;2023-06-04T05:33:27;7.65;;;5.50;;
74920;SDS011;63483;47.384;8.860;2023-06-04T05:35:55;6.95;;;5.47;;
74920;SDS011;63483;47.384;8.860;2023-06-04T05:38:22;7.68;;;5.55;;
74920;SDS011;63483;47.384;8.860;2023-06-04T05:40:53;9.45;;;5.82;;
74920;SDS011;63483;47.384;8.860;2023-06-04T05:43:19;7.43;;;5.40;;
74920;SDS011;63483;47.384;8.860;2023-06-04T05:45:46;6.90;;;5.28;;
74920;SDS011;63483;47.384;8.860;2023-06-04T05:48:11;5.68;;;4.70;;
74920;SDS011;63483;47.384;8.860;2023-06-04T05:50:37;8.47;;;5.00;;
74920;SDS011;63483;47.384;8.860;2023-06-04T05:53:02;7.40;;;5.50;;
74920;SDS011;63483;47.384;8.860;2023-06-04T05:55:27;7.67;;;5.93;;
74920;SDS011;63483;47.384;8.860;2023-06-04T05:57:54;7.30;;;5.38;;
74920;SDS011;63483;47.384;8.860;2023-06-04T06:00:20;7.70;;;5.20;;
74920;SDS011;63483;47.384;8.860;2023-06-04T06:02:46;7.17;;;4.93;;
74920;SDS011;63483;47.384;8.860;2023-06-04T06:05:14;9.05;;;5.60;;
74920;SDS011;63483;47.384;8.860;2023-06-04T06:07:40;9.40;;;6.00;;
74920;SDS011;63483;47.384;8.860;2023-06-04T06:10:06;7.83;;;5.20;;
74920;SDS011;63483;47.384;8.860;2023-06-04T06:12:31;7.27;;;5.30;;
74920;SDS011;63483;47.384;8.860;2023-06-04T06:14:57;8.50;;;5.50;;
74920;SDS011;63483;47.384;8.860;2023-06-04T06:17:22;7.23;;;5.37;;
74920;SDS011;63483;47.384;8.860;2023-06-04T06:19:48;7.00;;;5.38;;
74920;SDS011;63483;47.384;8.860;2023-06-04T06:22:14;6.83;;;5.50;;
74920;SDS011;63483;47.384;8.860;2023-06-04T06:24:40;9.80;;;6.70;;
74920;SDS011;63483;47.384;8.860;2023-06-04T06:27:05;8.25;;;6.13;;
74920;SDS011;63483;47.384;8.860;2023-06-04T06:29:31;8.20;;;6.00;;
74920;SDS011;63483;47.384;8.860;2023-06-04T06:31:58;7.60;;;5.75;;
74920;SDS011;63483;47.384;8.860;2023-06-04T06:34:24;8.25;;;5.57;;
74920;SDS011;63483;47.384;8.860;2023-06-04T06:36:50;8.52;;;5.80;;
74920;SDS011;63483;47.384;8.860;2023-06-04T06:39:15;6.90;;;5.70;;
74920;SDS011;63483;47.384;8.860;2023-06-04T06:41:41;7.90;;;6.10;;
74920;SDS011;63483;47.384;8.860;2023-06-04T06:44:06;8.68;;;5.85;;
74920;SDS011;63483;47.384;8.860;2023-06-04T06:46:32;8.23;;;6.00;;
74920;SDS011;63483;47.384;8.860;2023-06-04T06:48:57;9.47;;;6.13;;
74920;SDS011;63483;47.384;8.860;2023-06-04T06:51:23;9.47;;;6.20;;
74920;SDS011;63483;47.384;8.860;2023-06-04T06:53:51;8.27;;;6.25;;
74920;SDS011;63483;47.384;8.860;2023-06-04T06:56:17;7.37;;;6.27;;
74920;SDS011;63483;47.384;8.860;2023-06-04T06:58:43;10.50;;;7.10;;
74920;SDS011;63483;47.384;8.860;2023-06-04T07:01:09;8.20;;;6.72;;
74920;SDS011;63483;47.384;8.860;2023-06-04T07:03:35;10.57;;;6.40;;
74920;SDS011;63483;47.384;8.860;2023-06-04T07:06:00;8.73;;;6.00;;
74920;SDS011;63483;47.384;8.860;2023-06-04T07:08:25;8.60;;;5.67;;
74920;SDS011;63483;47.384;8.860;2023-06-04T07:10:51;8.63;;;6.43;;
74920;SDS011;63483;47.384;8.860;2023-06-04T07:13:16;9.27;;;6.20;;
74920;SDS011;63483;47.384;8.860;2023-06-04T07:15:42;7.80;;;6.57;;
74920;SDS011;63483;47.384;8.860;2023-06-04T07:18:07;8.70;;;6.10;;
74920;SDS011;63483;47.384;8.860;2023-06-04T07:20:33;9.47;;;5.70;;
74920;SDS011;63483;47.384;8.860;2023-06-04T07:22:58;7.73;;;5.90;;
74920;SDS011;63483;47.384;8.860;2023-06-04T07:25:23;9.57;;;5.90;;
74920;SDS011;63483;47.384;8.860;2023-06-04T07:27:50;7.93;;;5.70;;
74920;SDS011;63483;47.384;8.860;2023-06-04T07:30:16;8.40;;;6.97;;
74920;SDS011;63483;47.384;8.860;2023-06-04T07:32:45;8.30;;;5.80;;
74920;SDS011;63483;47.384;8.860;2023-06-04T07:35:11;7.03;;;5.73;;
74920;SDS011;63483;47.384;8.860;2023-06-04T07:37:36;7.10;;;6.05;;
74920;SDS011;63483;47.384;8.860;2023-06-04T07:40:02;7.77;;;6.13;;
74920;SDS011;63483;47.384;8.860;2023-06-04T07:42:28;9.32;;;6.70;;
74920;SDS011;63483;47.384;8.860;2023-06-04T07:44:53;8.00;;;5.97;;
74920;SDS011;63483;47.384;8.860;2023-06-04T07:47:19;8.43;;;5.67;;
74920;SDS011;63483;47.384;8.860;2023-06-04T07:49:45;8.48;;;6.38;;
74920;SDS011;63483;47.384;8.860;2023-06-04T07:52:10;8.43;;;6.03;;
74920;SDS011;63483;47.384;8.860;2023-06-04T07:54:35;11.30;;;6.57;;
74920;SDS011;63483;47.384;8.860;2023-06-04T07:57:01;9.33;;;6.90;;
74920;SDS011;63483;47.384;8.860;2023-06-04T07:59:26;7.47;;;5.97;;
74920;SDS011;63483;47.384;8.860;2023-06-04T08:01:52;9.27;;;6.60;;
74920;SDS011;63483;47.384;8.860;2023-06-04T08:04:17;9.10;;;6.40;;
74920;SDS011;63483;47.384;8.860;2023-06-04T08:06:43;7.88;;;6.25;;
74920;SDS011;63483;47.384;8.860;2023-06-04T08:09:09;8.20;;;6.13;;
74920;SDS011;63483;47.384;8.860;2023-06-04T08:11:36;9.23;;;6.50;;
74920;SDS011;63483;47.384;8.860;2023-06-04T08:14:01;9.50;;;5.87;;
74920;SDS011;63483;47.384;8.860;2023-06-04T08:16:27;8.53;;;5.90;;
74920;SDS011;63483;47.384;8.860;2023-06-04T08:18:52;8.87;;;6.10;;
74920;SDS011;63483;47.384;8.860;2023-06-04T08:21:26;11.77;;;6.10;;
74920;SDS011;63483;47.384;8.860;2023-06-04T08:23:53;8.75;;;6.53;;
74920;SDS011;63483;47.384;8.860;2023-06-04T08:26:19;8.82;;;6.40;;
74920;SDS011;63483;47.384;8.860;2023-06-04T08:28:47;10.17;;;5.77;;
74920;SDS011;63483;47.384;8.860;2023-06-04T08:31:14;8.25;;;5.95;;
74920;SDS011;63483;47.384;8.860;2023-06-04T08:33:39;8.43;;;6.73;;
74920;SDS011;63483;47.384;8.860;2023-06-04T08:36:04;11.17;;;6.20;;
74920;SDS011;63483;47.384;8.860;2023-06-04T08:38:30;11.27;;;6.63;;
74920;SDS011;63483;47.384;8.860;2023-06-04T08:40:56;7.33;;;5.23;;
74920;SDS011;63483;47.384;8.860;2023-06-04T08:43:27;7.05;;;5.70;;
74920;SDS011;63483;47.384;8.860;2023-06-04T08:45:57;7.95;;;5.20;;
74920;SDS011;63483;47.384;8.860;2023-06-04T08:48:24;8.07;;;5.43;;
74920;SDS011;63483;47.384;8.860;2023-06-04T08:50:52;9.00;;;5.85;;
74920;SDS011;63483;47.384;8.860;2023-06-04T08:53:20;6.78;;;5.20;;
74920;SDS011;63483;47.384;8.860;2023-06-04T08:55:46;8.30;;;5.33;;
74920;SDS011;63483;47.384;8.860;2023-06-04T08:58:15;7.32;;;5.55;;
74920;SDS011;63483;47.384;8.860;2023-06-04T09:00:42;8.43;;;5.82;;
74920;SDS011;63483;47.384;8.860;2023-06-04T09:03:07;9.47;;;5.87;;
74920;SDS011;63483;47.384;8.860;2023-06-04T09:05:33;9.00;;;5.38;;
74920;SDS011;63483;47.384;8.860;2023-06-04T09:08:00;7.77;;;5.13;;
74920;SDS011;63483;47.384;8.860;2023-06-04T09:10:26;7.05;;;5.72;;
74920;SDS011;63483;47.384;8.860;2023-06-04T09:12:54;8.52;;;5.57;;
74920;SDS011;63483;47.384;8.860;2023-06-04T09:15:26;8.15;;;5.30;;
74920;SDS011;63483;47.384;8.860;2023-06-04T09:17:51;8.03;;;4.83;;
74920;SDS011;63483;47.384;8.860;2023-06-04T09:20:20;6.80;;;5.07;;
74920;SDS011;63483;47.384;8.860;2023-06-04T09:22:46;7.68;;;5.50;;
74920;SDS011;63483;47.384;8.860;2023-06-04T09:25:18;6.77;;;4.80;;
74920;SDS011;63483;47.384;8.860;2023-06-04T09:27:45;8.38;;;4.97;;
74920;SDS011;63483;47.384;8.860;2023-06-04T09:30:10;8.27;;;5.43;;
74920;SDS011;63483;47.384;8.860;2023-06-04T09:32:36;8.97;;;5.27;;
74920;SDS011;63483;47.384;8.860;2023-06-04T09:35:17;6.53;;;4.97;;
74920;SDS011;63483;47.384;8.860;2023-06-04T09:37:53;7.47;;;5.00;;
74920;SDS011;63483;47.384;8.860;2023-06-04T09:40:22;8.50;;;5.30;;
74920;SDS011;63483;47.384;8.860;2023-06-04T09:42:48;7.43;;;5.20;;
74920;SDS011;63483;47.384;8.860;2023-06-04T09:45:28;6.88;;;5.03;;
74920;SDS011;63483;47.384;8.860;2023-06-04T09:47:54;8.15;;;5.45;;
74920;SDS011;63483;47.384;8.860;2023-06-04T09:50:53;7.00;;;5.00;;
74920;SDS011;63483;47.384;8.860;2023-06-04T09:53:12;8.23;;;4.65;;
74920;SDS011;63483;47.384;8.860;2023-06-04T09:55:56;8.27;;;4.60;;
74920;SDS011;63483;47.384;8.860;2023-06-04T09:58:23;7.88;;;4.40;;
74920;SDS011;63483;47.384;8.860;2023-06-04T10:01:00;7.80;;;5.15;;
74920;SDS011;63483;47.384;8.860;2023-06-04T10:03:30;6.35;;;4.63;;
74920;SDS011;63483;47.384;8.860;2023-06-04T10:06:01;6.72;;;4.20;;
74920;SDS011;63483;47.384;8.860;2023-06-04T10:08:29;6.27;;;4.30;;
74920;SDS011;63483;47.384;8.860;2023-06-04T10:10:57;6.85;;;4.60;;
74920;SDS011;63483;47.384;8.860;2023-06-04T10:13:29;7.25;;;4.32;;
74920;SDS011;63483;47.384;8.860;2023-06-04T10:16:00;7.35;;;4.88;;
74920;SDS011;63483;47.384;8.860;2023-06-04T10:18:27;6.90;;;4.40;;
74920;SDS011;63483;47.384;8.860;2023-06-04T10:20:56;6.73;;;4.67;;
74920;SDS011;63483;47.384;8.860;2023-06-04T10:23:23;4.95;;;3.90;;
74920;SDS011;63483;47.384;8.860;2023-06-04T10:25:49;7.10;;;4.88;;
74920;SDS011;63483;47.384;8.860;2023-06-04T10:28:18;7.82;;;4.82;;
74920;SDS011;63483;47.384;8.860;2023-06-04T10:30:48;6.88;;;4.18;;
74920;SDS011;63483;47.384;8.860;2023-06-04T10:33:15;5.90;;;4.30;;
74920;SDS011;63483;47.384;8.860;2023-06-04T10:35:45;5.28;;;3.97;;
74920;SDS011;63483;47.384;8.860;2023-06-04T10:38:11;7.20;;;4.30;;
74920;SDS011;63483;47.384;8.860;2023-06-04T10:40:39;9.82;;;4.10;;
74920;SDS011;63483;47.384;8.860;2023-06-04T10:43:06;5.47;;;4.05;;
74920;SDS011;63483;47.384;8.860;2023-06-04T10:45:32;9.03;;;4.50;;
74920;SDS011;63483;47.384;8.860;2023-06-04T10:48:02;7.05;;;4.05;;
74920;SDS011;63483;47.384;8.860;2023-06-04T10:50:28;5.60;;;4.22;;
74920;SDS011;63483;47.384;8.860;2023-06-04T10:52:54;5.93;;;4.03;;
74920;SDS011;63483;47.384;8.860;2023-06-04T10:55:22;5.95;;;4.20;;
74920;SDS011;63483;47.384;8.860;2023-06-04T10:57:58;7.03;;;4.13;;
74920;SDS011;63483;47.384;8.860;2023-06-04T11:00:46;7.28;;;4.88;;
74920;SDS011;63483;47.384;8.860;2023-06-04T11:03:12;6.43;;;4.70;;
74920;SDS011;63483;47.384;8.860;2023-06-04T11:05:39;7.35;;;3.90;;
74920;SDS011;63483;47.384;8.860;2023-06-04T11:08:05;7.53;;;4.68;;
74920;SDS011;63483;47.384;8.860;2023-06-04T11:10:32;5.57;;;4.20;;
74920;SDS011;63483;47.384;8.860;2023-06-04T11:12:59;8.30;;;4.13;;
74920;SDS011;63483;47.384;8.860;2023-06-04T11:15:25;5.35;;;4.35;;
74920;SDS011;63483;47.384;8.860;2023-06-04T11:17:54;7.27;;;4.03;;
74920;SDS011;63483;47.384;8.860;2023-06-04T11:20:23;5.97;;;4.18;;
74920;SDS011;63483;47.384;8.860;2023-06-04T11:22:58;6.33;;;4.23;;
74920;SDS011;63483;47.384;8.860;2023-06-04T11:25:28;6.72;;;3.88;;
74920;SDS011;63483;47.384;8.860;2023-06-04T11:27:58;6.95;;;4.45;;
74920;SDS011;63483;47.384;8.860;2023-06-04T11:30:26;6.90;;;4.13;;
74920;SDS011;63483;47.384;8.860;2023-06-04T11:33:04;6.13;;;4.00;;
74920;SDS011;63483;47.384;8.860;2023-06-04T11:35:31;7.00;;;4.33;;
74920;SDS011;63483;47.384;8.860;2023-06-04T11:38:04;9.05;;;4.03;;
74920;SDS011;63483;47.384;8.860;2023-06-04T11:40:30;7.53;;;3.90;;
74920;SDS011;63483;47.384;8.860;2023-06-04T11:42:55;6.30;;;4.30;;
74920;SDS011;63483;47.384;8.860;2023-06-04T11:45:21;7.97;;;4.43;;
74920;SDS011;63483;47.384;8.860;2023-06-04T11:47:48;5.93;;;3.97;;
74920;SDS011;63483;47.384;8.860;2023-06-04T11:50:15;5.60;;;4.13;;
74920;SDS011;63483;47.384;8.860;2023-06-04T11:52:41;6.88;;;4.38;;
74920;SDS011;63483;47.384;8.860;2023-06-04T11:55:10;6.07;;;4.25;;
74920;SDS011;63483;47.384;8.860;2023-06-04T11:57:39;6.63;;;4.57;;
74920;SDS011;63483;47.384;8.860;2023-06-04T12:00:05;7.07;;;4.20;;
74920;SDS011;63483;47.384;8.860;2023-06-04T12:05:17;5.82;;;4.20;;
74920;SDS011;63483;47.384;8.860;2023-06-04T12:07:43;8.63;;;4.70;;
74920;SDS011;63483;47.384;8.860;2023-06-04T12:10:10;7.50;;;4.57;;
74920;SDS011;63483;47.384;8.860;2023-06-04T12:12:38;6.00;;;4.82;;
74920;SDS011;63483;47.384;8.860;2023-06-04T12:15:07;7.13;;;4.25;;
74920;SDS011;63483;47.384;8.860;2023-06-04T12:17:34;5.53;;;4.13;;
74920;SDS011;63483;47.384;8.860;2023-06-04T12:20:00;6.47;;;4.60;;
74920;SDS011;63483;47.384;8.860;2023-06-04T12:22:26;6.70;;;4.47;;
74920;SDS011;63483;47.384;8.860;2023-06-04T12:24:55;5.53;;;4.20;;
74920;SDS011;63483;47.384;8.860;2023-06-04T12:27:23;8.75;;;4.85;;
74920;SDS011;63483;47.384;8.860;2023-06-04T12:32:25;8.52;;;4.50;;
74920;SDS011;63483;47.384;8.860;2023-06-04T12:34:51;6.20;;;4.63;;
74920;SDS011;63483;47.384;8.860;2023-06-04T12:37:17;5.57;;;4.22;;
74920;SDS011;63483;47.384;8.860;2023-06-04T12:39:42;6.37;;;3.97;;
74920;SDS011;63483;47.384;8.860;2023-06-04T12:42:08;6.13;;;4.23;;
74920;SDS011;63483;47.384;8.860;2023-06-04T12:44:40;6.57;;;4.60;;
74920;SDS011;63483;47.384;8.860;2023-06-04T12:47:06;5.88;;;4.35;;
74920;SDS011;63483;47.384;8.860;2023-06-04T12:49:32;7.45;;;4.20;;
74920;SDS011;63483;47.384;8.860;2023-06-04T12:51:58;6.87;;;4.37;;
74920;SDS011;63483;47.384;8.860;2023-06-04T12:54:23;5.90;;;4.47;;
74920;SDS011;63483;47.384;8.860;2023-06-04T12:56:49;8.77;;;4.50;;
74920;SDS011;63483;47.384;8.860;2023-06-04T12:59:15;6.63;;;4.50;;
74920;SDS011;63483;47.384;8.860;2023-06-04T13:01:40;6.17;;;4.23;;
74920;SDS011;63483;47.384;8.860;2023-06-04T13:04:06;5.47;;;3.93;;
74920;SDS011;63483;47.384;8.860;2023-06-04T13:06:33;6.27;;;4.43;;
74920;SDS011;63483;47.384;8.860;2023-06-04T13:09:00;6.90;;;4.43;;
74920;SDS011;63483;47.384;8.860;2023-06-04T13:11:26;5.50;;;4.40;;
74920;SDS011;63483;47.384;8.860;2023-06-04T13:13:51;6.67;;;5.03;;
74920;SDS011;63483;47.384;8.860;2023-06-04T13:16:17;8.73;;;5.00;;
74920;SDS011;63483;47.384;8.860;2023-06-04T13:18:42;6.27;;;4.60;;
74920;SDS011;63483;47.384;8.860;2023-06-04T13:21:07;5.78;;;4.32;;
74920;SDS011;63483;47.384;8.860;2023-06-04T13:23:33;5.30;;;4.27;;
74920;SDS011;63483;47.384;8.860;2023-06-04T13:25:58;6.60;;;5.00;;
74920;SDS011;63483;47.384;8.860;2023-06-04T13:28:25;7.38;;;4.35;;
74920;SDS011;63483;47.384;8.860;2023-06-04T13:30:51;7.53;;;4.83;;
74920;SDS011;63483;47.384;8.860;2023-06-04T13:33:16;6.67;;;4.80;;
74920;SDS011;63483;47.384;8.860;2023-06-04T13:35:44;7.45;;;4.57;;
74920;SDS011;63483;47.384;8.860;2023-06-04T13:38:09;7.50;;;5.03;;
74920;SDS011;63483;47.384;8.860;2023-06-04T13:40:35;7.38;;;4.30;;
74920;SDS011;63483;47.384;8.860;2023-06-04T13:43:00;6.80;;;4.70;;
74920;SDS011;63483;47.384;8.860;2023-06-04T13:45:26;7.75;;;5.00;;
74920;SDS011;63483;47.384;8.860;2023-06-04T13:47:51;6.50;;;4.40;;
74920;SDS011;63483;47.384;8.860;2023-06-04T13:50:17;6.63;;;4.03;;
74920;SDS011;63483;47.384;8.860;2023-06-04T13:52:42;4.87;;;4.03;;
74920;SDS011;63483;47.384;8.860;2023-06-04T13:55:07;5.93;;;4.60;;
74920;SDS011;63483;47.384;8.860;2023-06-04T13:57:33;7.07;;;4.70;;
74920;SDS011;63483;47.384;8.860;2023-06-04T13:59:59;6.97;;;4.73;;
74920;SDS011;63483;47.384;8.860;2023-06-04T14:02:24;7.13;;;4.53;;
74920;SDS011;63483;47.384;8.860;2023-06-04T14:04:50;9.37;;;4.50;;
74920;SDS011;63483;47.384;8.860;2023-06-04T14:07:17;6.63;;;3.95;;
74920;SDS011;63483;47.384;8.860;2023-06-04T14:09:42;6.57;;;4.33;;
74920;SDS011;63483;47.384;8.860;2023-06-04T14:12:08;7.37;;;4.40;;
74920;SDS011;63483;47.384;8.860;2023-06-04T14:14:33;7.07;;;4.60;;
74920;SDS011;63483;47.384;8.860;2023-06-04T14:17:05;6.65;;;4.47;;
74920;SDS011;63483;47.384;8.860;2023-06-04T14:19:33;6.50;;;5.03;;
74920;SDS011;63483;47.384;8.860;2023-06-04T14:21:59;6.00;;;4.50;;
74920;SDS011;63483;47.384;8.860;2023-06-04T14:24:24;6.70;;;5.07;;
74920;SDS011;63483;47.384;8.860;2023-06-04T14:26:50;7.53;;;4.90;;
74920;SDS011;63483;47.384;8.860;2023-06-04T14:29:15;6.17;;;4.57;;
74920;SDS011;63483;47.384;8.860;2023-06-04T14:31:41;9.20;;;4.93;;
74920;SDS011;63483;47.384;8.860;2023-06-04T14:34:06;8.10;;;4.80;;
74920;SDS011;63483;47.384;8.860;2023-06-04T14:36:32;7.47;;;4.47;;
74920;SDS011;63483;47.384;8.860;2023-06-04T14:38:58;6.90;;;4.83;;
74920;SDS011;63483;47.384;8.860;2023-06-04T14:41:23;7.32;;;5.03;;
74920;SDS011;63483;47.384;8.860;2023-06-04T14:43:48;8.37;;;4.70;;
74920;SDS011;63483;47.384;8.860;2023-06-04T14:46:14;7.73;;;4.87;;
74920;SDS011;63483;47.384;8.860;2023-06-04T14:48:39;5.53;;;4.53;;
74920;SDS011;63483;47.384;8.860;2023-06-04T14:51:04;6.97;;;5.13;;
74920;SDS011;63483;47.384;8.860;2023-06-04T14:53:30;7.80;;;4.60;;